sensor_id;sensor_type;location;lat;lon;timestamp;temperature;humidity
64855;DHT22;51321;50.428;8.378;2023-04-03T00:01:01;4.20;99.90
64855;DHT22;51321;50.428;8.378;2023-04-03T00:03:43;4.20;99.90
64855;DHT22;51321;50.428;8.378;2023-04-03T00:06:24;4.30;99.90
64855;DHT22;51321;50.428;8.378;2023-04-03T00:09:05;4.20;99.90
64855;DHT22;51321;50.428;8.378;2023-04-03T00:11:48;4.40;99.90
64855;DHT22;51321;50.428;8.378;2023-04-03T00:14:29;4.40;99.90
64855;DHT22;51321;50.428;8.378;2023-04-03T00:17:10;4.40;99.90
64855;DHT22;51321;50.428;8.378;2023-04-03T00:19:51;4.30;99.90
64855;DHT22;51321;50.428;8.378;2023-04-03T00:22:32;4.30;99.90
64855;DHT22;51321;50.428;8.378;2023-04-03T00:25:12;4.20;99.90
64855;DHT22;51321;50.428;8.378;2023-04-03T00:27:54;4.30;99.90
64855;DHT22;51321;50.428;8.378;2023-04-03T00:30:35;4.20;99.90
64855;DHT22;51321;50.428;8.378;2023-04-03T00:33:16;4.10;99.90
64855;DHT22;51321;50.428;8.378;2023-04-03T00:35:56;4.10;99.90
64855;DHT22;51321;50.428;8.378;2023-04-03T00:38:37;4.20;99.90
64855;DHT22;51321;50.428;8.378;2023-04-03T00:41:18;4.30;99.90
64855;DHT22;51321;50.428;8.378;2023-04-03T00:46:57;4.50;99.90
64855;DHT22;51321;50.428;8.378;2023-04-03T00:49:38;4.50;99.90
64855;DHT22;51321;50.428;8.378;2023-04-03T00:52:20;4.30;99.90
64855;DHT22;51321;50.428;8.378;2023-04-03T00:55:03;4.20;99.90
64855;DHT22;51321;50.428;8.378;2023-04-03T00:57:46;4.20;99.90
64855;DHT22;51321;50.428;8.378;2023-04-03T01:00:27;4.30;99.90
64855;DHT22;51321;50.428;8.378;2023-04-03T01:03:10;4.30;99.90
64855;DHT22;51321;50.428;8.378;2023-04-03T01:05:52;4.30;99.90
64855;DHT22;51321;50.428;8.378;2023-04-03T01:08:33;4.30;99.90
64855;DHT22;51321;50.428;8.378;2023-04-03T01:11:14;4.50;99.90
64855;DHT22;51321;50.428;8.378;2023-04-03T01:13:55;4.50;99.90
64855;DHT22;51321;50.428;8.378;2023-04-03T01:16:37;4.50;99.90
64855;DHT22;51321;50.428;8.378;2023-04-03T01:19:19;4.40;99.90
64855;DHT22;51321;50.428;8.378;2023-04-03T01:22:04;4.30;99.90
64855;DHT22;51321;50.428;8.378;2023-04-03T01:24:50;4.30;99.90
64855;DHT22;51321;50.428;8.378;2023-04-03T01:27:32;4.40;99.90
64855;DHT22;51321;50.428;8.378;2023-04-03T01:30:12;4.50;99.90
64855;DHT22;51321;50.428;8.378;2023-04-03T01:32:55;4.30;99.90
64855;DHT22;51321;50.428;8.378;2023-04-03T01:35:37;4.30;99.90
64855;DHT22;51321;50.428;8.378;2023-04-03T01:38:18;4.30;99.90
64855;DHT22;51321;50.428;8.378;2023-04-03T01:40:59;4.50;99.90
64855;DHT22;51321;50.428;8.378;2023-04-03T01:43:41;4.40;99.90
64855;DHT22;51321;50.428;8.378;2023-04-03T01:46:22;4.40;99.90
64855;DHT22;51321;50.428;8.378;2023-04-03T01:49:05;4.40;99.90
64855;DHT22;51321;50.428;8.378;2023-04-03T01:51:46;4.40;99.90
64855;DHT22;51321;50.428;8.378;2023-04-03T01:54:28;4.50;99.90
64855;DHT22;51321;50.428;8.378;2023-04-03T01:57:08;4.40;99.90
64855;DHT22;51321;50.428;8.378;2023-04-03T01:59:49;4.40;99.90
64855;DHT22;51321;50.428;8.378;2023-04-03T02:02:30;4.40;99.90
64855;DHT22;51321;50.428;8.378;2023-04-03T02:05:12;4.30;99.90
64855;DHT22;51321;50.428;8.378;2023-04-03T02:07:53;4.30;99.90
64855;DHT22;51321;50.428;8.378;2023-04-03T02:10:34;4.40;99.90
64855;DHT22;51321;50.428;8.378;2023-04-03T02:13:15;4.40;99.90
64855;DHT22;51321;50.428;8.378;2023-04-03T02:15:56;4.30;99.90
64855;DHT22;51321;50.428;8.378;2023-04-03T02:18:38;4.30;99.90
64855;DHT22;51321;50.428;8.378;2023-04-03T02:21:20;4.20;99.90
64855;DHT22;51321;50.428;8.378;2023-04-03T02:24:01;4.30;99.90
64855;DHT22;51321;50.428;8.378;2023-04-03T02:26:41;4.50;99.90
64855;DHT22;51321;50.428;8.378;2023-04-03T02:29:22;4.40;99.90
64855;DHT22;51321;50.428;8.378;2023-04-03T02:32:04;4.40;99.90
64855;DHT22;51321;50.428;8.378;2023-04-03T02:34:46;4.40;99.90
64855;DHT22;51321;50.428;8.378;2023-04-03T02:37:28;4.40;99.90
64855;DHT22;51321;50.428;8.378;2023-04-03T02:40:09;4.40;99.90
64855;DHT22;51321;50.428;8.378;2023-04-03T02:42:50;4.30;99.90
64855;DHT22;51321;50.428;8.378;2023-04-03T02:45:32;4.30;99.90
64855;DHT22;51321;50.428;8.378;2023-04-03T02:48:13;4.30;99.90
64855;DHT22;51321;50.428;8.378;2023-04-03T02:50:54;4.30;99.90
64855;DHT22;51321;50.428;8.378;2023-04-03T02:53:37;4.30;99.90
64855;DHT22;51321;50.428;8.378;2023-04-03T02:56:24;4.30;99.90
64855;DHT22;51321;50.428;8.378;2023-04-03T02:59:06;4.20;99.90
64855;DHT22;51321;50.428;8.378;2023-04-03T03:01:49;4.20;99.90
64855;DHT22;51321;50.428;8.378;2023-04-03T03:04:29;4.20;99.90
64855;DHT22;51321;50.428;8.378;2023-04-03T03:07:10;4.20;99.90
64855;DHT22;51321;50.428;8.378;2023-04-03T03:09:52;4.10;99.90
64855;DHT22;51321;50.428;8.378;2023-04-03T03:12:33;4.00;99.90
64855;DHT22;51321;50.428;8.378;2023-04-03T03:15:14;3.90;99.90
64855;DHT22;51321;50.428;8.378;2023-04-03T03:17:56;4.00;99.90
64855;DHT22;51321;50.428;8.378;2023-04-03T03:20:37;4.00;99.90
64855;DHT22;51321;50.428;8.378;2023-04-03T03:23:18;3.90;99.90
64855;DHT22;51321;50.428;8.378;2023-04-03T03:26:01;3.90;99.90
64855;DHT22;51321;50.428;8.378;2023-04-03T03:28:41;3.80;99.90
64855;DHT22;51321;50.428;8.378;2023-04-03T03:31:24;3.70;99.90
64855;DHT22;51321;50.428;8.378;2023-04-03T03:34:05;3.70;99.90
64855;DHT22;51321;50.428;8.378;2023-04-03T03:36:45;3.70;99.90
64855;DHT22;51321;50.428;8.378;2023-04-03T03:39:26;3.60;99.90
64855;DHT22;51321;50.428;8.378;2023-04-03T03:42:09;3.60;99.90
64855;DHT22;51321;50.428;8.378;2023-04-03T03:44:50;3.50;99.90
64855;DHT22;51321;50.428;8.378;2023-04-03T03:47:33;3.50;99.90
64855;DHT22;51321;50.428;8.378;2023-04-03T03:50:13;3.40;99.90
64855;DHT22;51321;50.428;8.378;2023-04-03T03:52:54;3.40;99.90
64855;DHT22;51321;50.428;8.378;2023-04-03T03:55:36;3.30;99.90
64855;DHT22;51321;50.428;8.378;2023-04-03T03:58:19;3.30;99.90
64855;DHT22;51321;50.428;8.378;2023-04-03T04:01:00;3.30;99.90
64855;DHT22;51321;50.428;8.378;2023-04-03T04:03:44;3.20;99.90
64855;DHT22;51321;50.428;8.378;2023-04-03T04:06:30;3.20;99.90
64855;DHT22;51321;50.428;8.378;2023-04-03T04:09:15;3.10;99.90
64855;DHT22;51321;50.428;8.378;2023-04-03T04:11:56;3.10;99.90
64855;DHT22;51321;50.428;8.378;2023-04-03T04:14:39;3.10;99.90
64855;DHT22;51321;50.428;8.378;2023-04-03T04:17:21;3.00;99.90
64855;DHT22;51321;50.428;8.378;2023-04-03T04:20:03;2.90;99.90
64855;DHT22;51321;50.428;8.378;2023-04-03T04:22:46;2.90;99.90
64855;DHT22;51321;50.428;8.378;2023-04-03T04:25:28;2.80;99.90
64855;DHT22;51321;50.428;8.378;2023-04-03T04:28:09;2.70;99.90
64855;DHT22;51321;50.428;8.378;2023-04-03T04:30:52;2.80;99.90
64855;DHT22;51321;50.428;8.378;2023-04-03T04:33:35;2.70;99.90
64855;DHT22;51321;50.428;8.378;2023-04-03T04:36:18;2.70;99.90
64855;DHT22;51321;50.428;8.378;2023-04-03T04:39:01;2.60;99.90
64855;DHT22;51321;50.428;8.378;2023-04-03T04:41:42;2.50;99.90
64855;DHT22;51321;50.428;8.378;2023-04-03T04:44:23;2.50;99.90
64855;DHT22;51321;50.428;8.378;2023-04-03T04:47:06;2.50;99.90
64855;DHT22;51321;50.428;8.378;2023-04-03T04:49:47;2.50;99.90
64855;DHT22;51321;50.428;8.378;2023-04-03T04:52:28;2.40;99.90
64855;DHT22;51321;50.428;8.378;2023-04-03T04:55:09;2.40;99.90
64855;DHT22;51321;50.428;8.378;2023-04-03T04:57:50;2.30;99.90
64855;DHT22;51321;50.428;8.378;2023-04-03T05:00:32;2.30;99.90
64855;DHT22;51321;50.428;8.378;2023-04-03T05:03:14;2.30;99.90
64855;DHT22;51321;50.428;8.378;2023-04-03T05:05:56;2.20;99.90
64855;DHT22;51321;50.428;8.378;2023-04-03T05:08:37;2.20;99.90
64855;DHT22;51321;50.428;8.378;2023-04-03T05:11:18;2.20;99.90
64855;DHT22;51321;50.428;8.378;2023-04-03T05:14:03;2.30;99.90
64855;DHT22;51321;50.428;8.378;2023-04-03T05:16:46;2.30;99.90
64855;DHT22;51321;50.428;8.378;2023-04-03T05:19:34;2.30;99.90
64855;DHT22;51321;50.428;8.378;2023-04-03T05:22:17;2.20;99.90
64855;DHT22;51321;50.428;8.378;2023-04-03T05:24:58;2.20;99.90
64855;DHT22;51321;50.428;8.378;2023-04-03T05:27:39;2.20;99.90
64855;DHT22;51321;50.428;8.378;2023-04-03T05:30:19;2.20;99.90
64855;DHT22;51321;50.428;8.378;2023-04-03T05:33:01;2.10;99.90
64855;DHT22;51321;50.428;8.378;2023-04-03T05:35:53;2.20;99.90
64855;DHT22;51321;50.428;8.378;2023-04-03T05:38:39;2.10;99.90
64855;DHT22;51321;50.428;8.378;2023-04-03T05:41:19;2.20;99.90
64855;DHT22;51321;50.428;8.378;2023-04-03T05:44:02;2.30;99.90
64855;DHT22;51321;50.428;8.378;2023-04-03T05:46:43;2.30;99.90
64855;DHT22;51321;50.428;8.378;2023-04-03T05:49:24;2.40;99.90
64855;DHT22;51321;50.428;8.378;2023-04-03T05:52:08;2.50;99.90
64855;DHT22;51321;50.428;8.378;2023-04-03T05:54:50;2.60;99.90
64855;DHT22;51321;50.428;8.378;2023-04-03T05:57:37;2.60;99.90
64855;DHT22;51321;50.428;8.378;2023-04-03T06:00:19;2.70;99.90
64855;DHT22;51321;50.428;8.378;2023-04-03T06:03:09;2.80;99.90
64855;DHT22;51321;50.428;8.378;2023-04-03T06:05:50;2.80;99.90
64855;DHT22;51321;50.428;8.378;2023-04-03T06:08:32;2.80;99.90
64855;DHT22;51321;50.428;8.378;2023-04-03T06:11:14;2.80;99.90
64855;DHT22;51321;50.428;8.378;2023-04-03T06:13:54;3.00;99.90
64855;DHT22;51321;50.428;8.378;2023-04-03T06:16:36;3.00;99.90
64855;DHT22;51321;50.428;8.378;2023-04-03T06:19:19;2.90;99.90
64855;DHT22;51321;50.428;8.378;2023-04-03T06:22:04;2.90;99.90
64855;DHT22;51321;50.428;8.378;2023-04-03T06:24:48;3.00;99.90
64855;DHT22;51321;50.428;8.378;2023-04-03T06:27:29;3.00;99.90
64855;DHT22;51321;50.428;8.378;2023-04-03T06:30:09;3.10;99.90
64855;DHT22;51321;50.428;8.378;2023-04-03T06:32:50;3.10;99.90
64855;DHT22;51321;50.428;8.378;2023-04-03T06:35:32;3.00;99.90
64855;DHT22;51321;50.428;8.378;2023-04-03T06:38:14;3.00;99.90
64855;DHT22;51321;50.428;8.378;2023-04-03T06:40:56;2.90;99.90
64855;DHT22;51321;50.428;8.378;2023-04-03T06:43:37;3.00;99.90
64855;DHT22;51321;50.428;8.378;2023-04-03T06:46:20;3.00;99.90
64855;DHT22;51321;50.428;8.378;2023-04-03T06:49:01;3.00;99.90
64855;DHT22;51321;50.428;8.378;2023-04-03T06:51:42;3.10;99.90
64855;DHT22;51321;50.428;8.378;2023-04-03T06:54:23;3.20;99.90
64855;DHT22;51321;50.428;8.378;2023-04-03T06:57:05;3.20;99.90
64855;DHT22;51321;50.428;8.378;2023-04-03T06:59:46;3.10;99.90
64855;DHT22;51321;50.428;8.378;2023-04-03T07:02:27;3.30;99.90
64855;DHT22;51321;50.428;8.378;2023-04-03T07:05:08;3.30;99.90
64855;DHT22;51321;50.428;8.378;2023-04-03T07:07:52;3.20;99.90
64855;DHT22;51321;50.428;8.378;2023-04-03T07:10:33;3.40;99.90
64855;DHT22;51321;50.428;8.378;2023-04-03T07:13:15;3.30;99.90
64855;DHT22;51321;50.428;8.378;2023-04-03T07:15:56;3.30;99.90
64855;DHT22;51321;50.428;8.378;2023-04-03T07:18:37;3.30;99.90
64855;DHT22;51321;50.428;8.378;2023-04-03T07:21:18;3.50;99.90
64855;DHT22;51321;50.428;8.378;2023-04-03T07:23:59;3.70;99.90
64855;DHT22;51321;50.428;8.378;2023-04-03T07:26:41;3.70;99.90
64855;DHT22;51321;50.428;8.378;2023-04-03T07:29:23;3.70;99.90
64855;DHT22;51321;50.428;8.378;2023-04-03T07:32:05;3.70;99.90
64855;DHT22;51321;50.428;8.378;2023-04-03T07:34:47;3.40;99.90
64855;DHT22;51321;50.428;8.378;2023-04-03T07:37:28;3.30;99.90
64855;DHT22;51321;50.428;8.378;2023-04-03T07:40:09;3.40;99.90
64855;DHT22;51321;50.428;8.378;2023-04-03T07:42:50;3.60;99.90
64855;DHT22;51321;50.428;8.378;2023-04-03T07:45:34;3.60;99.90
64855;DHT22;51321;50.428;8.378;2023-04-03T07:48:16;3.80;99.90
64855;DHT22;51321;50.428;8.378;2023-04-03T07:50:58;3.80;99.90
64855;DHT22;51321;50.428;8.378;2023-04-03T07:53:39;3.70;99.90
64855;DHT22;51321;50.428;8.378;2023-04-03T07:56:20;3.40;99.90
64855;DHT22;51321;50.428;8.378;2023-04-03T07:59:02;3.30;99.90
64855;DHT22;51321;50.428;8.378;2023-04-03T08:01:44;3.50;99.90
64855;DHT22;51321;50.428;8.378;2023-04-03T08:04:25;3.70;99.90
64855;DHT22;51321;50.428;8.378;2023-04-03T08:07:06;3.90;99.90
64855;DHT22;51321;50.428;8.378;2023-04-03T08:09:46;4.20;99.90
64855;DHT22;51321;50.428;8.378;2023-04-03T08:12:27;4.30;99.90
64855;DHT22;51321;50.428;8.378;2023-04-03T08:15:08;4.40;99.90
64855;DHT22;51321;50.428;8.378;2023-04-03T08:17:50;4.30;99.90
64855;DHT22;51321;50.428;8.378;2023-04-03T08:20:31;4.50;99.90
64855;DHT22;51321;50.428;8.378;2023-04-03T08:23:11;4.60;99.90
64855;DHT22;51321;50.428;8.378;2023-04-03T08:25:52;4.40;99.90
64855;DHT22;51321;50.428;8.378;2023-04-03T08:28:33;4.50;99.90
64855;DHT22;51321;50.428;8.378;2023-04-03T08:31:15;4.60;99.90
64855;DHT22;51321;50.428;8.378;2023-04-03T08:33:59;5.10;99.90
64855;DHT22;51321;50.428;8.378;2023-04-03T08:36:40;4.90;99.90
64855;DHT22;51321;50.428;8.378;2023-04-03T08:39:21;5.10;99.90
64855;DHT22;51321;50.428;8.378;2023-04-03T08:42:03;5.30;99.90
64855;DHT22;51321;50.428;8.378;2023-04-03T08:44:47;4.90;99.90
64855;DHT22;51321;50.428;8.378;2023-04-03T08:47:28;4.80;99.90
64855;DHT22;51321;50.428;8.378;2023-04-03T08:50:15;5.10;99.90
64855;DHT22;51321;50.428;8.378;2023-04-03T08:52:57;5.00;99.90
64855;DHT22;51321;50.428;8.378;2023-04-03T08:55:39;4.60;99.90
64855;DHT22;51321;50.428;8.378;2023-04-03T08:58:21;4.50;99.90
64855;DHT22;51321;50.428;8.378;2023-04-03T09:01:04;4.50;99.90
64855;DHT22;51321;50.428;8.378;2023-04-03T09:03:45;4.60;99.90
64855;DHT22;51321;50.428;8.378;2023-04-03T09:06:29;4.70;99.90
64855;DHT22;51321;50.428;8.378;2023-04-03T09:09:13;4.60;99.90
64855;DHT22;51321;50.428;8.378;2023-04-03T09:11:57;4.60;99.90
64855;DHT22;51321;50.428;8.378;2023-04-03T09:14:41;4.70;99.90
64855;DHT22;51321;50.428;8.378;2023-04-03T09:17:26;4.90;99.90
64855;DHT22;51321;50.428;8.378;2023-04-03T09:20:13;5.00;99.90
64855;DHT22;51321;50.428;8.378;2023-04-03T09:22:56;4.90;99.90
64855;DHT22;51321;50.428;8.378;2023-04-03T09:25:37;4.70;99.90
64855;DHT22;51321;50.428;8.378;2023-04-03T09:28:22;4.50;99.90
64855;DHT22;51321;50.428;8.378;2023-04-03T09:31:05;5.00;99.90
64855;DHT22;51321;50.428;8.378;2023-04-03T09:33:54;5.80;99.90
64855;DHT22;51321;50.428;8.378;2023-04-03T09:36:39;6.40;99.90
64855;DHT22;51321;50.428;8.378;2023-04-03T09:39:22;6.40;99.90
64855;DHT22;51321;50.428;8.378;2023-04-03T09:42:05;6.20;99.80
64855;DHT22;51321;50.428;8.378;2023-04-03T09:44:52;6.20;99.90
64855;DHT22;51321;50.428;8.378;2023-04-03T09:47:35;6.10;99.90
64855;DHT22;51321;50.428;8.378;2023-04-03T09:50:19;6.00;99.90
64855;DHT22;51321;50.428;8.378;2023-04-03T09:53:05;6.30;99.90
64855;DHT22;51321;50.428;8.378;2023-04-03T09:55:53;5.80;99.90
64855;DHT22;51321;50.428;8.378;2023-04-03T09:58:36;5.50;99.90
64855;DHT22;51321;50.428;8.378;2023-04-03T10:01:22;5.50;99.90
64855;DHT22;51321;50.428;8.378;2023-04-03T10:04:08;5.70;97.30
64855;DHT22;51321;50.428;8.378;2023-04-03T10:06:49;5.90;98.70
64855;DHT22;51321;50.428;8.378;2023-04-03T10:09:34;5.80;96.80
64855;DHT22;51321;50.428;8.378;2023-04-03T10:12:18;6.00;95.40
64855;DHT22;51321;50.428;8.378;2023-04-03T10:15:02;6.00;95.70
64855;DHT22;51321;50.428;8.378;2023-04-03T10:17:49;6.00;96.60
64855;DHT22;51321;50.428;8.378;2023-04-03T10:20:33;5.90;94.70
64855;DHT22;51321;50.428;8.378;2023-04-03T10:23:18;6.20;96.60
64855;DHT22;51321;50.428;8.378;2023-04-03T10:26:04;6.40;96.50
64855;DHT22;51321;50.428;8.378;2023-04-03T10:28:55;6.50;95.40
64855;DHT22;51321;50.428;8.378;2023-04-03T10:31:39;6.50;93.40
64855;DHT22;51321;50.428;8.378;2023-04-03T10:34:23;6.70;95.60
64855;DHT22;51321;50.428;8.378;2023-04-03T10:37:10;7.10;95.40
64855;DHT22;51321;50.428;8.378;2023-04-03T10:39:56;7.10;93.00
64855;DHT22;51321;50.428;8.378;2023-04-03T10:42:42;7.00;92.20
64855;DHT22;51321;50.428;8.378;2023-04-03T10:45:34;7.40;93.00
64855;DHT22;51321;50.428;8.378;2023-04-03T10:48:26;7.20;92.00
64855;DHT22;51321;50.428;8.378;2023-04-03T10:51:12;7.50;88.80
64855;DHT22;51321;50.428;8.378;2023-04-03T10:53:56;7.70;86.90
64855;DHT22;51321;50.428;8.378;2023-04-03T10:56:41;7.60;90.40
64855;DHT22;51321;50.428;8.378;2023-04-03T10:59:25;7.80;86.70
64855;DHT22;51321;50.428;8.378;2023-04-03T11:02:11;8.20;80.70
64855;DHT22;51321;50.428;8.378;2023-04-03T11:04:55;7.90;82.70
64855;DHT22;51321;50.428;8.378;2023-04-03T11:07:39;7.30;82.70
64855;DHT22;51321;50.428;8.378;2023-04-03T11:10:29;7.10;85.00
64855;DHT22;51321;50.428;8.378;2023-04-03T11:13:13;6.80;82.20
64855;DHT22;51321;50.428;8.378;2023-04-03T11:15:55;6.90;88.00
64855;DHT22;51321;50.428;8.378;2023-04-03T11:18:40;7.00;88.80
64855;DHT22;51321;50.428;8.378;2023-04-03T11:21:25;7.30;86.40
64855;DHT22;51321;50.428;8.378;2023-04-03T11:24:11;7.50;83.20
64855;DHT22;51321;50.428;8.378;2023-04-03T11:26:58;7.70;86.10
64855;DHT22;51321;50.428;8.378;2023-04-03T11:29:43;7.70;83.10
64855;DHT22;51321;50.428;8.378;2023-04-03T11:32:29;8.00;85.50
64855;DHT22;51321;50.428;8.378;2023-04-03T11:35:21;7.80;80.30
64855;DHT22;51321;50.428;8.378;2023-04-03T11:38:03;7.70;80.30
64855;DHT22;51321;50.428;8.378;2023-04-03T11:40:50;7.60;78.80
64855;DHT22;51321;50.428;8.378;2023-04-03T11:43:32;7.80;75.40
64855;DHT22;51321;50.428;8.378;2023-04-03T11:46:13;8.10;79.90
64855;DHT22;51321;50.428;8.378;2023-04-03T11:48:55;8.00;79.00
64855;DHT22;51321;50.428;8.378;2023-04-03T11:51:44;7.70;77.50
64855;DHT22;51321;50.428;8.378;2023-04-03T11:54:45;7.50;78.80
64855;DHT22;51321;50.428;8.378;2023-04-03T11:57:43;7.60;79.40
64855;DHT22;51321;50.428;8.378;2023-04-03T12:03:35;8.10;76.20
64855;DHT22;51321;50.428;8.378;2023-04-03T12:06:54;8.00;77.30
64855;DHT22;51321;50.428;8.378;2023-04-03T12:09:54;8.20;75.20
64855;DHT22;51321;50.428;8.378;2023-04-03T12:12:39;8.20;77.50
64855;DHT22;51321;50.428;8.378;2023-04-03T12:24:33;8.10;75.80
64855;DHT22;51321;50.428;8.378;2023-04-03T12:27:27;8.20;78.40
64855;DHT22;51321;50.428;8.378;2023-04-03T12:30:14;8.10;78.90
64855;DHT22;51321;50.428;8.378;2023-04-03T12:33:01;7.80;78.60
64855;DHT22;51321;50.428;8.378;2023-04-03T12:35:47;7.30;75.20
64855;DHT22;51321;50.428;8.378;2023-04-03T12:38:37;7.10;77.20
64855;DHT22;51321;50.428;8.378;2023-04-03T12:41:27;7.40;77.10
64855;DHT22;51321;50.428;8.378;2023-04-03T12:47:23;7.70;77.00
64855;DHT22;51321;50.428;8.378;2023-04-03T12:50:13;8.10;79.20
64855;DHT22;51321;50.428;8.378;2023-04-03T12:52:59;7.80;74.50
64855;DHT22;51321;50.428;8.378;2023-04-03T12:55:42;7.70;76.90
64855;DHT22;51321;50.428;8.378;2023-04-03T12:58:25;8.10;75.60
64855;DHT22;51321;50.428;8.378;2023-04-03T13:01:09;7.80;78.20
64855;DHT22;51321;50.428;8.378;2023-04-03T13:03:53;7.70;80.50
64855;DHT22;51321;50.428;8.378;2023-04-03T13:06:37;7.90;79.60
64855;DHT22;51321;50.428;8.378;2023-04-03T13:09:20;7.80;78.50
64855;DHT22;51321;50.428;8.378;2023-04-03T13:12:03;7.70;74.70
64855;DHT22;51321;50.428;8.378;2023-04-03T13:14:52;7.70;77.00
64855;DHT22;51321;50.428;8.378;2023-04-03T13:17:33;7.60;78.50
64855;DHT22;51321;50.428;8.378;2023-04-03T13:20:20;7.60;75.40
64855;DHT22;51321;50.428;8.378;2023-04-03T13:23:04;7.20;75.90
64855;DHT22;51321;50.428;8.378;2023-04-03T13:25:48;7.20;77.90
64855;DHT22;51321;50.428;8.378;2023-04-03T13:28:32;7.40;77.70
64855;DHT22;51321;50.428;8.378;2023-04-03T13:31:19;7.50;77.20
64855;DHT22;51321;50.428;8.378;2023-04-03T13:34:02;7.50;79.50
64855;DHT22;51321;50.428;8.378;2023-04-03T13:36:54;7.60;78.30
64855;DHT22;51321;50.428;8.378;2023-04-03T13:39:36;7.60;79.30
64855;DHT22;51321;50.428;8.378;2023-04-03T13:42:21;7.90;81.10
64855;DHT22;51321;50.428;8.378;2023-04-03T13:45:16;8.00;78.80
64855;DHT22;51321;50.428;8.378;2023-04-03T13:48:16;8.10;77.60
64855;DHT22;51321;50.428;8.378;2023-04-03T13:50:59;8.00;76.70
64855;DHT22;51321;50.428;8.378;2023-04-03T13:53:43;8.00;77.60
64855;DHT22;51321;50.428;8.378;2023-04-03T13:56:26;7.80;76.70
64855;DHT22;51321;50.428;8.378;2023-04-03T13:59:21;7.50;77.80
64855;DHT22;51321;50.428;8.378;2023-04-03T14:05:03;7.40;78.10
64855;DHT22;51321;50.428;8.378;2023-04-03T14:07:47;7.50;78.50
64855;DHT22;51321;50.428;8.378;2023-04-03T14:10:28;7.70;79.70
64855;DHT22;51321;50.428;8.378;2023-04-03T14:13:14;7.80;80.10
64855;DHT22;51321;50.428;8.378;2023-04-03T14:15:56;7.50;79.30
64855;DHT22;51321;50.428;8.378;2023-04-03T14:18:39;7.30;79.90
64855;DHT22;51321;50.428;8.378;2023-04-03T14:21:22;7.20;78.20
64855;DHT22;51321;50.428;8.378;2023-04-03T14:24:02;7.20;78.70
64855;DHT22;51321;50.428;8.378;2023-04-03T14:26:44;7.30;78.10
64855;DHT22;51321;50.428;8.378;2023-04-03T14:29:26;7.30;77.90
64855;DHT22;51321;50.428;8.378;2023-04-03T14:32:07;7.50;80.60
64855;DHT22;51321;50.428;8.378;2023-04-03T14:34:48;7.50;77.70
64855;DHT22;51321;50.428;8.378;2023-04-03T14:37:34;7.40;78.60
64855;DHT22;51321;50.428;8.378;2023-04-03T14:40:17;7.40;78.10
64855;DHT22;51321;50.428;8.378;2023-04-03T14:42:59;7.10;77.60
64855;DHT22;51321;50.428;8.378;2023-04-03T14:45:42;7.20;80.10
64855;DHT22;51321;50.428;8.378;2023-04-03T14:48:24;7.30;80.60
64855;DHT22;51321;50.428;8.378;2023-04-03T14:51:05;7.40;80.50
64855;DHT22;51321;50.428;8.378;2023-04-03T14:53:49;7.60;80.40
64855;DHT22;51321;50.428;8.378;2023-04-03T14:56:30;7.70;78.70
64855;DHT22;51321;50.428;8.378;2023-04-03T14:59:11;7.60;74.50
64855;DHT22;51321;50.428;8.378;2023-04-03T15:01:52;7.40;74.60
64855;DHT22;51321;50.428;8.378;2023-04-03T15:04:33;7.50;76.50
64855;DHT22;51321;50.428;8.378;2023-04-03T15:07:14;7.50;77.70
64855;DHT22;51321;50.428;8.378;2023-04-03T15:09:56;7.70;76.10
64855;DHT22;51321;50.428;8.378;2023-04-03T15:12:37;7.80;77.20
64855;DHT22;51321;50.428;8.378;2023-04-03T15:15:19;7.70;77.00
64855;DHT22;51321;50.428;8.378;2023-04-03T15:18:00;7.50;77.00
64855;DHT22;51321;50.428;8.378;2023-04-03T15:20:41;7.20;76.20
64855;DHT22;51321;50.428;8.378;2023-04-03T15:23:23;7.10;77.30
64855;DHT22;51321;50.428;8.378;2023-04-03T15:26:06;7.10;79.00
64855;DHT22;51321;50.428;8.378;2023-04-03T15:28:47;7.10;79.10
64855;DHT22;51321;50.428;8.378;2023-04-03T15:31:28;7.20;78.80
64855;DHT22;51321;50.428;8.378;2023-04-03T15:34:10;7.10;77.40
64855;DHT22;51321;50.428;8.378;2023-04-03T15:36:52;7.10;78.30
64855;DHT22;51321;50.428;8.378;2023-04-03T15:39:33;7.10;78.60
64855;DHT22;51321;50.428;8.378;2023-04-03T15:42:17;7.10;77.90
64855;DHT22;51321;50.428;8.378;2023-04-03T15:44:58;7.10;77.90
64855;DHT22;51321;50.428;8.378;2023-04-03T15:47:39;7.10;78.60
64855;DHT22;51321;50.428;8.378;2023-04-03T15:50:20;7.00;75.50
64855;DHT22;51321;50.428;8.378;2023-04-03T15:53:03;6.90;75.00
64855;DHT22;51321;50.428;8.378;2023-04-03T15:55:44;6.80;77.60
64855;DHT22;51321;50.428;8.378;2023-04-03T15:58:27;6.80;74.90
64855;DHT22;51321;50.428;8.378;2023-04-03T16:01:08;6.70;77.10
64855;DHT22;51321;50.428;8.378;2023-04-03T16:03:49;6.70;76.00
64855;DHT22;51321;50.428;8.378;2023-04-03T16:06:31;6.70;77.80
64855;DHT22;51321;50.428;8.378;2023-04-03T16:09:13;6.70;77.90
64855;DHT22;51321;50.428;8.378;2023-04-03T16:11:55;6.70;77.60
64855;DHT22;51321;50.428;8.378;2023-04-03T16:14:37;6.80;78.60
64855;DHT22;51321;50.428;8.378;2023-04-03T16:17:19;6.80;79.40
64855;DHT22;51321;50.428;8.378;2023-04-03T16:20:00;6.80;78.90
64855;DHT22;51321;50.428;8.378;2023-04-03T16:22:42;6.80;78.80
64855;DHT22;51321;50.428;8.378;2023-04-03T16:25:23;6.80;78.30
64855;DHT22;51321;50.428;8.378;2023-04-03T16:28:04;6.80;78.80
64855;DHT22;51321;50.428;8.378;2023-04-03T16:30:47;6.80;79.00
64855;DHT22;51321;50.428;8.378;2023-04-03T16:33:28;6.70;79.20
64855;DHT22;51321;50.428;8.378;2023-04-03T16:36:11;6.60;79.00
64855;DHT22;51321;50.428;8.378;2023-04-03T16:38:52;6.50;79.10
64855;DHT22;51321;50.428;8.378;2023-04-03T16:41:34;6.50;79.40
64855;DHT22;51321;50.428;8.378;2023-04-03T16:44:15;6.50;79.30
64855;DHT22;51321;50.428;8.378;2023-04-03T16:46:57;6.40;78.50
64855;DHT22;51321;50.428;8.378;2023-04-03T16:49:40;6.40;78.30
64855;DHT22;51321;50.428;8.378;2023-04-03T16:52:20;6.40;78.00
64855;DHT22;51321;50.428;8.378;2023-04-03T16:55:01;6.30;78.80
64855;DHT22;51321;50.428;8.378;2023-04-03T16:57:42;6.30;79.90
64855;DHT22;51321;50.428;8.378;2023-04-03T17:00:24;6.30;80.20
64855;DHT22;51321;50.428;8.378;2023-04-03T17:03:06;6.30;80.90
64855;DHT22;51321;50.428;8.378;2023-04-03T17:05:47;6.20;80.10
64855;DHT22;51321;50.428;8.378;2023-04-03T17:08:28;6.20;80.70
64855;DHT22;51321;50.428;8.378;2023-04-03T17:11:10;6.20;81.50
64855;DHT22;51321;50.428;8.378;2023-04-03T17:13:51;6.20;82.80
64855;DHT22;51321;50.428;8.378;2023-04-03T17:16:32;6.10;81.70
64855;DHT22;51321;50.428;8.378;2023-04-03T17:19:15;6.10;83.70
64855;DHT22;51321;50.428;8.378;2023-04-03T17:21:57;6.10;81.70
64855;DHT22;51321;50.428;8.378;2023-04-03T17:24:38;6.00;83.20
64855;DHT22;51321;50.428;8.378;2023-04-03T17:27:19;6.00;80.60
64855;DHT22;51321;50.428;8.378;2023-04-03T17:29:59;6.00;81.50
64855;DHT22;51321;50.428;8.378;2023-04-03T17:32:41;6.00;81.70
64855;DHT22;51321;50.428;8.378;2023-04-03T17:35:23;5.90;80.50
64855;DHT22;51321;50.428;8.378;2023-04-03T17:38:05;5.90;81.50
64855;DHT22;51321;50.428;8.378;2023-04-03T17:40:46;5.80;83.10
64855;DHT22;51321;50.428;8.378;2023-04-03T17:43:27;5.80;84.00
64855;DHT22;51321;50.428;8.378;2023-04-03T17:46:10;5.90;83.20